sensor_id;sensor_type;location;lat;lon;timestamp;temperature;humidity
5956;DHT22;3004;48.080;11.600;2023-06-14T06:22:39;14.00;99.90
5956;DHT22;3004;48.080;11.600;2023-06-14T06:25:28;14.30;99.90
5956;DHT22;3004;48.080;11.600;2023-06-14T06:28:02;14.40;99.90
5956;DHT22;3004;48.080;11.600;2023-06-14T06:56:34;15.20;99.90
5956;DHT22;3004;48.080;11.600;2023-06-14T07:09:48;16.00;99.90
5956;DHT22;3004;48.080;11.600;2023-06-14T07:16:10;16.50;99.90
5956;DHT22;3004;48.080;11.600;2023-06-14T07:18:39;16.60;99.90
5956;DHT22;3004;48.080;11.600;2023-06-14T07:37:56;17.50;99.90
5956;DHT22;3004;48.080;11.600;2023-06-14T07:40:51;17.30;99.90
5956;DHT22;3004;48.080;11.600;2023-06-14T07:49:45;17.90;99.90
5956;DHT22;3004;48.080;11.600;2023-06-14T07:52:21;18.10;99.90
5956;DHT22;3004;48.080;11.600;2023-06-14T07:54:59;18.30;99.90
5956;DHT22;3004;48.080;11.600;2023-06-14T07:57:45;18.20;99.90
5956;DHT22;3004;48.080;11.600;2023-06-14T08:17:38;18.70;99.90
5956;DHT22;3004;48.080;11.600;2023-06-14T08:20:06;19.00;99.50
5956;DHT22;3004;48.080;11.600;2023-06-14T08:22:36;18.70;98.80
5956;DHT22;3004;48.080;11.600;2023-06-14T08:25:10;18.90;99.60
5956;DHT22;3004;48.080;11.600;2023-06-14T08:27:39;19.10;98.00
5956;DHT22;3004;48.080;11.600;2023-06-14T08:30:10;19.10;97.90
5956;DHT22;3004;48.080;11.600;2023-06-14T08:32:40;19.20;98.50
5956;DHT22;3004;48.080;11.600;2023-06-14T08:35:07;19.10;99.70
5956;DHT22;3004;48.080;11.600;2023-06-14T08:37:38;19.30;99.40
5956;DHT22;3004;48.080;11.600;2023-06-14T08:40:42;19.30;99.50
5956;DHT22;3004;48.080;11.600;2023-06-14T08:43:09;19.60;99.60
5956;DHT22;3004;48.080;11.600;2023-06-14T08:45:36;19.80;99.10
5956;DHT22;3004;48.080;11.600;2023-06-14T08:48:10;19.60;98.20
5956;DHT22;3004;48.080;11.600;2023-06-14T08:50:51;19.70;99.10
5956;DHT22;3004;48.080;11.600;2023-06-14T08:53:35;19.80;99.30
5956;DHT22;3004;48.080;11.600;2023-06-14T08:56:08;19.70;97.80
5956;DHT22;3004;48.080;11.600;2023-06-14T09:23:05;20.40;97.20
5956;DHT22;3004;48.080;11.600;2023-06-14T09:39:55;20.60;99.50
5956;DHT22;3004;48.080;11.600;2023-06-14T09:42:26;20.40;98.90
5956;DHT22;3004;48.080;11.600;2023-06-14T09:48:57;20.30;99.50
5956;DHT22;3004;48.080;11.600;2023-06-14T10:31:12;21.10;98.50
5956;DHT22;3004;48.080;11.600;2023-06-14T10:34:01;21.50;99.00
5956;DHT22;3004;48.080;11.600;2023-06-14T10:45:33;21.20;99.60
5956;DHT22;3004;48.080;11.600;2023-06-14T11:18:36;21.10;99.90
5956;DHT22;3004;48.080;11.600;2023-06-14T11:23:35;21.20;99.90
5956;DHT22;3004;48.080;11.600;2023-06-14T11:31:01;21.30;99.40
5956;DHT22;3004;48.080;11.600;2023-06-14T11:37:05;20.80;99.60
5956;DHT22;3004;48.080;11.600;2023-06-14T11:39:46;20.60;99.40
5956;DHT22;3004;48.080;11.600;2023-06-14T11:46:19;20.40;99.40
5956;DHT22;3004;48.080;11.600;2023-06-14T11:49:02;20.60;99.60
5956;DHT22;3004;48.080;11.600;2023-06-14T11:51:35;20.90;99.10
5956;DHT22;3004;48.080;11.600;2023-06-14T16:22:56;21.20;97.80
5956;DHT22;3004;48.080;11.600;2023-06-14T16:25:23;21.20;97.20
5956;DHT22;3004;48.080;11.600;2023-06-14T16:27:57;21.20;97.40
5956;DHT22;3004;48.080;11.600;2023-06-14T16:30:45;21.10;97.00
5956;DHT22;3004;48.080;11.600;2023-06-14T16:33:16;21.00;97.40
5956;DHT22;3004;48.080;11.600;2023-06-14T16:35:48;20.90;97.60
5956;DHT22;3004;48.080;11.600;2023-06-14T16:38:20;21.10;97.10
5956;DHT22;3004;48.080;11.600;2023-06-14T16:40:49;21.10;97.00
5956;DHT22;3004;48.080;11.600;2023-06-14T16:43:18;21.10;97.50
5956;DHT22;3004;48.080;11.600;2023-06-14T16:45:48;21.10;97.50
5956;DHT22;3004;48.080;11.600;2023-06-14T16:48:15;21.10;97.10
5956;DHT22;3004;48.080;11.600;2023-06-14T16:50:45;21.10;97.10
5956;DHT22;3004;48.080;11.600;2023-06-14T16:53:14;21.00;97.30
5956;DHT22;3004;48.080;11.600;2023-06-14T16:55:43;21.00;97.00
5956;DHT22;3004;48.080;11.600;2023-06-14T16:58:16;20.90;96.80
5956;DHT22;3004;48.080;11.600;2023-06-14T17:00:49;20.80;96.70
5956;DHT22;3004;48.080;11.600;2023-06-14T17:03:18;20.90;97.10
5956;DHT22;3004;48.080;11.600;2023-06-14T17:05:58;20.90;97.40
5956;DHT22;3004;48.080;11.600;2023-06-14T17:08:31;21.00;97.60
5956;DHT22;3004;48.080;11.600;2023-06-14T17:11:06;20.90;97.00
5956;DHT22;3004;48.080;11.600;2023-06-14T17:20:26;20.80;97.00
5956;DHT22;3004;48.080;11.600;2023-06-14T17:22:57;20.80;97.30
5956;DHT22;3004;48.080;11.600;2023-06-14T17:25:33;20.80;97.30
5956;DHT22;3004;48.080;11.600;2023-06-14T17:28:05;20.70;97.60
5956;DHT22;3004;48.080;11.600;2023-06-14T17:30:36;20.70;97.80
5956;DHT22;3004;48.080;11.600;2023-06-14T17:33:15;20.60;97.90
5956;DHT22;3004;48.080;11.600;2023-06-14T17:35:50;20.60;98.00
5956;DHT22;3004;48.080;11.600;2023-06-14T17:38:29;20.60;97.30
5956;DHT22;3004;48.080;11.600;2023-06-14T17:40:58;20.60;97.80
5956;DHT22;3004;48.080;11.600;2023-06-14T17:43:51;20.60;98.40
5956;DHT22;3004;48.080;11.600;2023-06-14T17:49:54;20.40;99.90
5956;DHT22;3004;48.080;11.600;2023-06-14T17:53:08;20.40;99.90
5956;DHT22;3004;48.080;11.600;2023-06-14T17:55:42;20.40;99.70
5956;DHT22;3004;48.080;11.600;2023-06-14T17:58:37;20.40;99.90
5956;DHT22;3004;48.080;11.600;2023-06-14T18:01:42;20.30;99.90
5956;DHT22;3004;48.080;11.600;2023-06-14T18:04:11;20.20;99.90
5956;DHT22;3004;48.080;11.600;2023-06-14T18:06:44;20.10;99.90
5956;DHT22;3004;48.080;11.600;2023-06-14T18:09:44;20.10;99.90
5956;DHT22;3004;48.080;11.600;2023-06-14T18:15:41;20.00;99.90
5956;DHT22;3004;48.080;11.600;2023-06-14T18:18:42;20.00;99.90
5956;DHT22;3004;48.080;11.600;2023-06-14T18:21:33;19.90;99.90
5956;DHT22;3004;48.080;11.600;2023-06-14T18:24:04;19.80;99.90
5956;DHT22;3004;48.080;11.600;2023-06-14T18:26:37;19.80;99.90
5956;DHT22;3004;48.080;11.600;2023-06-14T18:29:18;19.80;99.90
5956;DHT22;3004;48.080;11.600;2023-06-14T18:35:39;19.60;99.90
5956;DHT22;3004;48.080;11.600;2023-06-14T18:38:17;19.50;99.90
5956;DHT22;3004;48.080;11.600;2023-06-14T18:40:56;19.40;99.90
5956;DHT22;3004;48.080;11.600;2023-06-14T18:44:05;19.30;99.90
5956;DHT22;3004;48.080;11.600;2023-06-14T18:47:05;19.30;99.90
5956;DHT22;3004;48.080;11.600;2023-06-14T18:53:56;19.10;99.90
5956;DHT22;3004;48.080;11.600;2023-06-14T18:57:14;19.10;99.90
5956;DHT22;3004;48.080;11.600;2023-06-14T19:00:38;19.00;99.90
5956;DHT22;3004;48.080;11.600;2023-06-14T19:03:20;18.90;99.90
5956;DHT22;3004;48.080;11.600;2023-06-14T19:05:57;18.80;99.90
5956;DHT22;3004;48.080;11.600;2023-06-14T19:12:53;18.70;99.90
5956;DHT22;3004;48.080;11.600;2023-06-14T19:18:01;18.60;99.90
5956;DHT22;3004;48.080;11.600;2023-06-14T19:19:04;18.40;99.90
5956;DHT22;3004;48.080;11.600;2023-06-14T19:42:11;17.30;99.90
5956;DHT22;3004;48.080;11.600;2023-06-14T19:44:40;17.20;99.90
5956;DHT22;3004;48.080;11.600;2023-06-14T19:47:28;17.10;99.90
5956;DHT22;3004;48.080;11.600;2023-06-14T19:53:47;17.00;99.90
5956;DHT22;3004;48.080;11.600;2023-06-14T19:56:16;17.00;99.90
5956;DHT22;3004;48.080;11.600;2023-06-14T19:58:45;16.90;99.90
5956;DHT22;3004;48.080;11.600;2023-06-14T20:01:18;16.80;99.90
5956;DHT22;3004;48.080;11.600;2023-06-14T20:07:10;16.70;99.90
5956;DHT22;3004;48.080;11.600;2023-06-14T20:09:44;16.70;99.90
5956;DHT22;3004;48.080;11.600;2023-06-14T20:12:17;16.60;99.90
5956;DHT22;3004;48.080;11.600;2023-06-14T20:14:46;16.50;99.90
5956;DHT22;3004;48.080;11.600;2023-06-14T20:17:23;16.50;99.90
5956;DHT22;3004;48.080;11.600;2023-06-14T20:23:21;16.50;99.90
5956;DHT22;3004;48.080;11.600;2023-06-14T20:28:59;16.50;99.90
5956;DHT22;3004;48.080;11.600;2023-06-14T20:31:47;16.40;99.90
5956;DHT22;3004;48.080;11.600;2023-06-14T20:34:27;16.40;99.90
5956;DHT22;3004;48.080;11.600;2023-06-14T20:36:56;16.30;99.90
5956;DHT22;3004;48.080;11.600;2023-06-14T20:39:29;16.30;99.90
5956;DHT22;3004;48.080;11.600;2023-06-14T20:42:01;16.30;99.90
5956;DHT22;3004;48.080;11.600;2023-06-14T20:44:31;16.30;99.90
5956;DHT22;3004;48.080;11.600;2023-06-14T20:47:18;16.20;99.90
5956;DHT22;3004;48.080;11.600;2023-06-14T20:49:50;16.20;99.90
5956;DHT22;3004;48.080;11.600;2023-06-14T20:52:22;16.10;99.90
5956;DHT22;3004;48.080;11.600;2023-06-14T20:54:49;16.10;99.90
5956;DHT22;3004;48.080;11.600;2023-06-14T20:57:16;16.10;99.90
5956;DHT22;3004;48.080;11.600;2023-06-14T20:59:48;15.90;99.90
5956;DHT22;3004;48.080;11.600;2023-06-14T21:02:22;15.90;99.90
5956;DHT22;3004;48.080;11.600;2023-06-14T21:04:51;15.80;99.90
5956;DHT22;3004;48.080;11.600;2023-06-14T21:07:19;15.70;99.90
5956;DHT22;3004;48.080;11.600;2023-06-14T21:09:46;15.70;99.90
5956;DHT22;3004;48.080;11.600;2023-06-14T21:12:13;15.60;99.90
5956;DHT22;3004;48.080;11.600;2023-06-14T21:14:40;15.40;99.90
5956;DHT22;3004;48.080;11.600;2023-06-14T21:17:10;15.40;99.90
5956;DHT22;3004;48.080;11.600;2023-06-14T21:19:38;15.40;99.90
5956;DHT22;3004;48.080;11.600;2023-06-14T21:22:07;15.30;99.90
5956;DHT22;3004;48.080;11.600;2023-06-14T21:24:35;15.30;99.90
5956;DHT22;3004;48.080;11.600;2023-06-14T21:27:03;15.30;99.90
5956;DHT22;3004;48.080;11.600;2023-06-14T21:29:32;15.20;99.90
5956;DHT22;3004;48.080;11.600;2023-06-14T21:32:03;15.10;99.90
5956;DHT22;3004;48.080;11.600;2023-06-14T21:34:49;15.10;99.90
5956;DHT22;3004;48.080;11.600;2023-06-14T21:37:32;15.10;99.90
5956;DHT22;3004;48.080;11.600;2023-06-14T21:40:00;15.00;99.90
5956;DHT22;3004;48.080;11.600;2023-06-14T21:42:43;14.90;99.90
5956;DHT22;3004;48.080;11.600;2023-06-14T21:45:17;14.80;99.90
5956;DHT22;3004;48.080;11.600;2023-06-14T21:47:50;14.80;99.90
5956;DHT22;3004;48.080;11.600;2023-06-14T21:50:19;14.80;99.90
5956;DHT22;3004;48.080;11.600;2023-06-14T21:52:47;14.70;99.90
5956;DHT22;3004;48.080;11.600;2023-06-14T21:55:17;14.70;99.90
5956;DHT22;3004;48.080;11.600;2023-06-14T21:57:46;14.70;99.90
5956;DHT22;3004;48.080;11.600;2023-06-14T22:00:14;14.70;99.90
5956;DHT22;3004;48.080;11.600;2023-06-14T22:02:41;14.70;99.90
5956;DHT22;3004;48.080;11.600;2023-06-14T22:05:08;14.70;99.90
5956;DHT22;3004;48.080;11.600;2023-06-14T22:07:37;14.60;99.90
5956;DHT22;3004;48.080;11.600;2023-06-14T22:10:06;14.60;99.90
5956;DHT22;3004;48.080;11.600;2023-06-14T22:12:35;14.40;99.90
5956;DHT22;3004;48.080;11.600;2023-06-14T22:15:05;14.30;99.90
5956;DHT22;3004;48.080;11.600;2023-06-14T22:17:33;14.20;99.90
5956;DHT22;3004;48.080;11.600;2023-06-14T22:20:01;14.10;99.90
5956;DHT22;3004;48.080;11.600;2023-06-14T22:22:31;14.10;99.90
5956;DHT22;3004;48.080;11.600;2023-06-14T22:25:06;14.10;99.90
5956;DHT22;3004;48.080;11.600;2023-06-14T22:27:34;14.00;99.90
5956;DHT22;3004;48.080;11.600;2023-06-14T22:30:08;14.00;99.90
5956;DHT22;3004;48.080;11.600;2023-06-14T22:32:35;13.90;99.90
5956;DHT22;3004;48.080;11.600;2023-06-14T22:35:02;13.90;99.90
5956;DHT22;3004;48.080;11.600;2023-06-14T22:37:30;13.70;99.90
5956;DHT22;3004;48.080;11.600;2023-06-14T22:40:12;13.60;99.90
5956;DHT22;3004;48.080;11.600;2023-06-14T22:42:42;13.60;99.90
5956;DHT22;3004;48.080;11.600;2023-06-14T22:45:14;13.60;99.90
5956;DHT22;3004;48.080;11.600;2023-06-14T22:47:42;13.50;99.90
5956;DHT22;3004;48.080;11.600;2023-06-14T22:50:10;13.50;99.90
5956;DHT22;3004;48.080;11.600;2023-06-14T22:52:39;13.40;99.90
5956;DHT22;3004;48.080;11.600;2023-06-14T22:55:09;13.30;99.90
5956;DHT22;3004;48.080;11.600;2023-06-14T22:57:37;13.20;99.90
5956;DHT22;3004;48.080;11.600;2023-06-14T23:00:05;13.10;99.90
5956;DHT22;3004;48.080;11.600;2023-06-14T23:02:37;13.00;99.90
5956;DHT22;3004;48.080;11.600;2023-06-14T23:05:07;13.00;99.90
5956;DHT22;3004;48.080;11.600;2023-06-14T23:07:34;12.90;99.90
5956;DHT22;3004;48.080;11.600;2023-06-14T23:10:03;12.80;99.90
5956;DHT22;3004;48.080;11.600;2023-06-14T23:12:34;12.60;99.90
5956;DHT22;3004;48.080;11.600;2023-06-14T23:15:02;12.60;99.90
5956;DHT22;3004;48.080;11.600;2023-06-14T23:17:29;12.60;99.90
5956;DHT22;3004;48.080;11.600;2023-06-14T23:19:57;12.50;99.90
5956;DHT22;3004;48.080;11.600;2023-06-14T23:22:45;12.30;99.90
5956;DHT22;3004;48.080;11.600;2023-06-14T23:25:13;12.30;99.90
5956;DHT22;3004;48.080;11.600;2023-06-14T23:27:41;12.20;99.90
5956;DHT22;3004;48.080;11.600;2023-06-14T23:30:09;12.20;99.90
5956;DHT22;3004;48.080;11.600;2023-06-14T23:32:39;12.10;99.90
5956;DHT22;3004;48.080;11.600;2023-06-14T23:35:09;12.00;99.90
5956;DHT22;3004;48.080;11.600;2023-06-14T23:37:36;12.00;99.90
5956;DHT22;3004;48.080;11.600;2023-06-14T23:40:03;12.00;99.90
5956;DHT22;3004;48.080;11.600;2023-06-14T23:42:35;11.90;99.90
5956;DHT22;3004;48.080;11.600;2023-06-14T23:45:09;11.80;99.90
5956;DHT22;3004;48.080;11.600;2023-06-14T23:50:12;11.50;99.90
5956;DHT22;3004;48.080;11.600;2023-06-14T23:56:17;11.30;99.90
5956;DHT22;3004;48.080;11.600;2023-06-14T23:58:46;11.30;99.90
